Latest Weather Observations for Melville Water

IDW60801

Issued at 12:05 pm WST Wednesday 26 November 2014 (issued every 30 minutes, with the page automatically refreshed every 10 minutes)

About weather observations | Map of weather stations | Latest weather observations for WA | Other Formats
Station Details ID: 009091 Name: INNER DOLPHIN PYLON Lat: -31.99 Lon: 115.83 Height: 0.0 m
Data from the previous 72 hours. | See also: Recent months for locations in Western Australia
Date/Time
WST
Temp
°C
App
Temp
°C
Dew
Point
Rel
Hum
%
Delta-T
°C
Wind Press
QNH
hPa
Press
MSL
hPa
Rain
since 9 am
mm
Dir
 
Spd
km/h
Gust
km/h
Spd
kts
Gust
kts
26/12:00pm - - - - - SSE 17 24 9 13 - - -
26/11:30am - - - - - SSE 9 15 5 8 - - -
26/11:00am - - - - - E 24 32 13 17 - - -
26/10:30am - - - - - E 22 28 12 15 - - -
26/10:00am - - - - - E 32 43 17 23 - - -
26/09:30am - - - - - E 30 43 16 23 - - -
26/09:00am - - - - - E 28 37 15 20 - - -
26/08:30am - - - - - ENE 20 30 11 16 - - -
26/08:00am - - - - - E 24 32 13 17 - - -
26/07:30am - - - - - E 24 39 13 21 - - -
26/07:00am - - - - - E 26 35 14 19 - - -
26/06:30am - - - - - E 24 30 13 16 - - -
26/06:00am - - - - - E 24 33 13 18 - - -
26/05:30am - - - - - E 22 28 12 15 - - -
26/05:00am - - - - - E 20 28 11 15 - - -
26/04:30am - - - - - ESE 26 32 14 17 - - -
26/04:00am - - - - - ESE 22 30 12 16 - - -
26/03:30am - - - - - ESE 28 37 15 20 - - -
26/03:00am - - - - - ESE 28 37 15 20 - - -
26/02:30am - - - - - ESE 30 41 16 22 - - -
26/02:00am - - - - - ESE 26 35 14 19 - - -
26/01:30am - - - - - E 33 48 18 26 - - -
26/01:10am - - - - - E 33 52 18 28 - - -
26/01:00am - - - - - E 37 52 20 28 - - -
26/12:30am - - - - - E 33 43 18 23 - - -
26/12:00am - - - - - ESE 30 52 16 28 - - -
 
Date/Time
WST
Temp
°C
App
Temp
°C
Dew
Point
Rel
Hum
%
Delta-T
°C
Wind Press
QNH
hPa
Press
MSL
hPa
Rain
since 9 am
mm
Dir
 
Spd
km/h
Gust
km/h
Spd
kts
Gust
kts
25/11:52pm - - - - - ESE 33 52 18 28 - - -
25/11:30pm - - - - - ESE 37 50 20 27 - - -
25/11:00pm - - - - - ESE 41 54 22 29 - - -
25/10:35pm - - - - - ESE 32 54 17 29 - - -
25/10:30pm - - - - - ESE 28 39 15 21 - - -
25/10:00pm - - - - - ESE 17 24 9 13 - - -
25/09:43pm - - - - - SE 28 37 15 20 - - -
25/09:30pm - - - - - SE 13 17 7 9 - - -
25/09:00pm - - - - - SSE 13 17 7 9 - - -
25/08:30pm - - - - - SSE 13 15 7 8 - - -
25/08:00pm - - - - - SSE 13 17 7 9 - - -
25/07:30pm - - - - - SSE 17 20 9 11 - - -
25/07:00pm - - - - - SSE 19 24 10 13 - - -
25/06:30pm - - - - - SE 22 26 12 14 - - -
25/06:00pm - - - - - SE 22 30 12 16 - - -
25/05:30pm - - - - - SE 20 28 11 15 - - -
25/05:00pm - - - - - S 13 24 7 13 - - -
25/04:30pm - - - - - SW 11 24 6 13 - - -
25/04:00pm - - - - - SW 9 19 5 10 - - -
25/03:30pm - - - - - SSE 17 28 9 15 - - -
25/03:00pm - - - - - SSE 15 28 8 15 - - -
25/02:30pm - - - - - SE 13 22 7 12 - - -
25/02:00pm - - - - - SSW 9 20 5 11 - - -
25/01:30pm - - - - - S 9 13 5 7 - - -
25/01:00pm - - - - - S 13 20 7 11 - - -
25/12:30pm - - - - - SSE 13 19 7 10 - - -
25/12:00pm - - - - - S 11 19 6 10 - - -
25/11:30am - - - - - ESE 13 24 7 13 - - -
25/11:00am - - - - - S 4 7 2 4 - - -
25/10:30am - - - - - E 19 22 10 12 - - -
25/10:00am - - - - - E 22 28 12 15 - - -
25/09:30am - - - - - ENE 24 33 13 18 - - -
25/09:00am - - - - - ENE 26 35 14 19 - - -
25/08:30am - - - - - E 20 28 11 15 - - -
25/08:00am - - - - - E 20 30 11 16 - - -
25/07:30am - - - - - ESE 19 26 10 14 - - -
25/07:00am - - - - - ESE 19 24 10 13 - - -
25/06:30am - - - - - E 20 24 11 13 - - -
25/06:00am - - - - - E 22 28 12 15 - - -
25/05:30am - - - - - ESE 20 26 11 14 - - -
25/05:00am - - - - - ESE 20 28 11 15 - - -
25/04:30am - - - - - ESE 24 30 13 16 - - -
25/04:00am - - - - - ESE 22 28 12 15 - - -
25/03:30am - - - - - ESE 19 24 10 13 - - -
25/03:00am - - - - - ESE 19 22 10 12 - - -
25/02:30am - - - - - E 19 26 10 14 - - -
25/02:00am - - - - - ESE 20 26 11 14 - - -
25/01:30am - - - - - E 24 33 13 18 - - -
25/01:00am - - - - - ESE 13 20 7 11 - - -
25/12:30am - - - - - SSE 9 11 5 6 - - -
25/12:00am - - - - - S 7 11 4 6 - - -
 
Date/Time
WST
Temp
°C
App
Temp
°C
Dew
Point
Rel
Hum
%
Delta-T
°C
Wind Press
QNH
hPa
Press
MSL
hPa
Rain
since 9 am
mm
Dir
 
Spd
km/h
Gust
km/h
Spd
kts
Gust
kts
24/11:30pm - - - - - S 9 13 5 7 - - -
24/11:00pm - - - - - S 9 15 5 8 - - -
24/10:30pm - - - - - S 9 13 5 7 - - -
24/10:00pm - - - - - S 11 15 6 8 - - -
24/09:30pm - - - - - S 11 15 6 8 - - -
24/09:00pm - - - - - S 11 17 6 9 - - -
24/08:30pm - - - - - SSW 11 15 6 8 - - -
24/08:00pm - - - - - S 13 20 7 11 - - -
24/07:30pm - - - - - S 19 24 10 13 - - -
24/07:00pm - - - - - S 20 26 11 14 - - -
24/06:30pm - - - - - SSW 26 33 14 18 - - -
24/06:00pm - - - - - SSW 33 43 18 23 - - -
24/05:30pm - - - - - SSW 35 43 19 23 - - -
24/05:00pm - - - - - SW 33 43 18 23 - - -
24/04:30pm - - - - - SW 35 43 19 23 - - -
24/04:00pm - - - - - SW 32 37 17 20 - - -
24/03:30pm - - - - - SW 32 39 17 21 - - -
24/03:00pm - - - - - SW 32 37 17 20 - - -
24/02:30pm - - - - - SW 30 35 16 19 - - -
24/02:00pm - - - - - SW 30 33 16 18 - - -
24/01:30pm - - - - - WSW 26 32 14 17 - - -
24/01:00pm - - - - - WSW 20 32 11 17 - - -
24/12:30pm - - - - - SW 4 7 2 4 - - -
24/12:00pm - - - - - SSE 9 15 5 8 - - -
24/11:30am - - - - - S 11 22 6 12 - - -
24/11:00am - - - - - SE 9 17 5 9 - - -
24/10:30am - - - - - ESE 17 24 9 13 - - -
24/10:00am - - - - - SE 17 24 9 13 - - -
24/09:30am - - - - - E 17 26 9 14 - - -
24/09:00am - - - - - E 15 22 8 12 - - -
24/08:30am - - - - - E 17 30 9 16 - - -
24/08:00am - - - - - E 20 28 11 15 - - -
24/07:30am - - - - - E 22 32 12 17 - - -
24/07:00am - - - - - E 24 32 13 17 - - -
24/06:30am - - - - - ESE 24 32 13 17 - - -
24/06:00am - - - - - ESE 19 24 10 13 - - -
24/05:30am - - - - - SE 19 24 10 13 - - -
24/05:00am - - - - - SE 20 26 11 14 - - -
24/04:30am - - - - - SE 20 26 11 14 - - -
24/04:00am - - - - - SE 22 28 12 15 - - -
24/03:30am - - - - - SSE 17 22 9 12 - - -
24/03:00am - - - - - S 17 20 9 11 - - -
24/02:30am - - - - - S 17 22 9 12 - - -
24/02:00am - - - - - S 17 22 9 12 - - -
24/01:30am - - - - - S 17 22 9 12 - - -
24/01:00am - - - - - S 20 24 11 13 - - -
24/12:30am - - - - - S 19 24 10 13 - - -
24/12:00am - - - - - S 20 26 11 14 - - -
 
Date/Time
WST
Temp
°C
App
Temp
°C
Dew
Point
Rel
Hum
%
Delta-T
°C
Wind Press
QNH
hPa
Press
MSL
hPa
Rain
since 9 am
mm
Dir
 
Spd
km/h
Gust
km/h
Spd
kts
Gust
kts
23/11:30pm - - - - - S 24 32 13 17 - - -
23/11:00pm - - - - - S 28 37 15 20 - - -
23/10:30pm - - - - - S 20 30 11 16 - - -
23/10:00pm - - - - - S 20 28 11 15 - - -
23/09:30pm - - - - - S 22 28 12 15 - - -
23/09:00pm - - - - - S 20 26 11 14 - - -
23/08:30pm - - - - - S 24 30 13 16 - - -
23/08:00pm - - - - - SSW 26 32 14 17 - - -
23/07:30pm - - - - - SSW 28 35 15 19 - - -
23/07:00pm - - - - - SSW 33 41 18 22 - - -
23/06:30pm - - - - - SSW 35 43 19 23 - - -
23/06:00pm - - - - - SW 32 39 17 21 - - -
23/05:30pm - - - - - SSW 33 41 18 22 - - -
23/05:00pm - - - - - SW 35 44 19 24 - - -
23/04:30pm - - - - - SW 35 43 19 23 - - -
23/04:00pm - - - - - SW 33 44 18 24 - - -
23/03:30pm - - - - - SSW 33 41 18 22 - - -
23/03:00pm - - - - - SW 30 39 16 21 - - -
23/02:30pm - - - - - SW 32 39 17 21 - - -
23/02:00pm - - - - - SW 30 37 16 20 - - -
23/01:30pm - - - - - SW 28 35 15 19 - - -
23/01:00pm - - - - - SW 26 32 14 17 - - -
23/12:30pm - - - - - SW 26 33 14 18 - - -

Other Formats:

Comma delimited format used in spreadsheet applications
http://www.bom.gov.au/fwo/IDW60801/IDW60801.95620.axf

JavaScript Object Notation format (JSON) in row-major order
http://www.bom.gov.au/fwo/IDW60801/IDW60801.95620.json